Terminal Aerodrome Forecast
Issued by NWS

Home | Current Version | Previous Version | Text Only | Print | Product List | Glossary On
Versions: 1 2 3 4 5 6 7 8 9 10 11 12 13 14 15 16 17 18 19
000
FTUS41 KBTV 252340
TAFMSS
TAF
KMSS 252340Z 2600/2624 25006KT P6SM VCSH SCT070 BKN120
     FM260500 25006KT P6SM VCSH BKN050
      TEMPO 2606/2609 5SM -SHRA BR BKN025
     FM261200 26007KT P6SM SCT050
     FM262000 28005KT P6SM VCSH BKN080=

USA.gov is the U.S. government's official web portal to all federal, state and local government web resources and services.